sensor_id;sensor_type;location;lat;lon;timestamp;pressure;altitude;pressure_sealevel;temperature;humidity
50123;BME280;36021;48.670;6.184;2023-05-20T00:00:45;99153.59;;;16.66;100.00
50123;BME280;36021;48.670;6.184;2023-05-20T00:03:15;99154.09;;;16.69;100.00
50123;BME280;36021;48.670;6.184;2023-05-20T00:05:42;99151.78;;;16.71;100.00
50123;BME280;36021;48.670;6.184;2023-05-20T00:08:08;99146.06;;;16.67;100.00
50123;BME280;36021;48.670;6.184;2023-05-20T00:10:36;99152.59;;;16.62;100.00
50123;BME280;36021;48.670;6.184;2023-05-20T00:13:02;99158.38;;;16.57;100.00
50123;BME280;36021;48.670;6.184;2023-05-20T00:15:27;99149.53;;;16.55;100.00
50123;BME280;36021;48.670;6.184;2023-05-20T00:17:54;99147.22;;;16.57;100.00
50123;BME280;36021;48.670;6.184;2023-05-20T00:20:20;99147.22;;;16.57;100.00
50123;BME280;36021;48.670;6.184;2023-05-20T00:22:46;99146.88;;;16.50;100.00
50123;BME280;36021;48.670;6.184;2023-05-20T00:25:12;99143.47;;;16.45;100.00
50123;BME280;36021;48.670;6.184;2023-05-20T00:27:40;99145.91;;;16.46;100.00
50123;BME280;36021;48.670;6.184;2023-05-20T00:30:07;99135.44;;;16.52;100.00
50123;BME280;36021;48.670;6.184;2023-05-20T00:32:33;99144.59;;;16.44;100.00
50123;BME280;36021;48.670;6.184;2023-05-20T00:35:01;99136.75;;;16.37;100.00
50123;BME280;36021;48.670;6.184;2023-05-20T00:37:28;99138.91;;;16.32;100.00
50123;BME280;36021;48.670;6.184;2023-05-20T00:39:56;99146.75;;;16.30;100.00
50123;BME280;36021;48.670;6.184;2023-05-20T00:42:24;99144.78;;;16.30;100.00
50123;BME280;36021;48.670;6.184;2023-05-20T00:44:52;99140.56;;;16.33;100.00
50123;BME280;36021;48.670;6.184;2023-05-20T00:47:22;99142.00;;;16.30;100.00
50123;BME280;36021;48.670;6.184;2023-05-20T00:49:50;99140.72;;;16.28;100.00
50123;BME280;36021;48.670;6.184;2023-05-20T00:52:17;99134.31;;;16.27;100.00
50123;BME280;36021;48.670;6.184;2023-05-20T00:54:44;99139.56;;;16.29;100.00
50123;BME280;36021;48.670;6.184;2023-05-20T00:57:12;99138.28;;;16.26;100.00
50123;BME280;36021;48.670;6.184;2023-05-20T00:59:39;99131.06;;;16.25;100.00
50123;BME280;36021;48.670;6.184;2023-05-20T01:02:06;99128.44;;;16.29;100.00
50123;BME280;36021;48.670;6.184;2023-05-20T01:04:32;99127.63;;;16.28;100.00
50123;BME280;36021;48.670;6.184;2023-05-20T01:07:01;99132.53;;;16.31;100.00
50123;BME280;36021;48.670;6.184;2023-05-20T01:09:29;99120.75;;;16.34;100.00
50123;BME280;36021;48.670;6.184;2023-05-20T01:12:05;99126.47;;;16.38;100.00
50123;BME280;36021;48.670;6.184;2023-05-20T01:14:39;99131.34;;;16.41;100.00
50123;BME280;36021;48.670;6.184;2023-05-20T01:17:08;99126.31;;;16.34;100.00
50123;BME280;36021;48.670;6.184;2023-05-20T01:19:41;99122.53;;;16.39;100.00
50123;BME280;36021;48.670;6.184;2023-05-20T01:22:08;99118.63;;;16.31;100.00
50123;BME280;36021;48.670;6.184;2023-05-20T01:27:08;99122.06;;;16.28;100.00
50123;BME280;36021;48.670;6.184;2023-05-20T01:29:39;99121.75;;;16.21;100.00
50123;BME280;36021;48.670;6.184;2023-05-20T01:32:09;99123.69;;;16.21;100.00
50123;BME280;36021;48.670;6.184;2023-05-20T01:34:36;99114.53;;;16.20;100.00
50123;BME280;36021;48.670;6.184;2023-05-20T01:37:04;99110.94;;;16.11;100.00
50123;BME280;36021;48.670;6.184;2023-05-20T01:39:33;99122.75;;;16.08;100.00
50123;BME280;36021;48.670;6.184;2023-05-20T01:42:04;99106.72;;;16.05;100.00
50123;BME280;36021;48.670;6.184;2023-05-20T01:44:33;99115.22;;;16.00;100.00
50123;BME280;36021;48.670;6.184;2023-05-20T01:47:03;99107.84;;;16.04;100.00
50123;BME280;36021;48.670;6.184;2023-05-20T01:49:28;99105.88;;;16.04;100.00
50123;BME280;36021;48.670;6.184;2023-05-20T01:51:54;99095.25;;;15.98;100.00
50123;BME280;36021;48.670;6.184;2023-05-20T01:54:20;99109.50;;;16.05;100.00
50123;BME280;36021;48.670;6.184;2023-05-20T01:56:48;99104.41;;;16.07;100.00
50123;BME280;36021;48.670;6.184;2023-05-20T01:59:14;99105.41;;;15.94;100.00
50123;BME280;36021;48.670;6.184;2023-05-20T02:01:40;99106.56;;;15.93;100.00
50123;BME280;36021;48.670;6.184;2023-05-20T02:04:06;99105.25;;;15.99;100.00
50123;BME280;36021;48.670;6.184;2023-05-20T02:06:32;99111.28;;;16.01;100.00
50123;BME280;36021;48.670;6.184;2023-05-20T02:08:58;99107.19;;;16.07;100.00
50123;BME280;36021;48.670;6.184;2023-05-20T02:11:25;99102.94;;;16.01;100.00
50123;BME280;36021;48.670;6.184;2023-05-20T02:13:53;99106.25;;;16.03;100.00
50123;BME280;36021;48.670;6.184;2023-05-20T02:16:19;99098.84;;;16.07;100.00
50123;BME280;36021;48.670;6.184;2023-05-20T02:18:44;99096.72;;;16.04;100.00
50123;BME280;36021;48.670;6.184;2023-05-20T02:21:15;99096.72;;;16.04;100.00
50123;BME280;36021;48.670;6.184;2023-05-20T02:23:42;99092.00;;;15.96;100.00
50123;BME280;36021;48.670;6.184;2023-05-20T02:26:07;99089.53;;;15.94;100.00
50123;BME280;36021;48.670;6.184;2023-05-20T02:28:35;99092.50;;;15.89;100.00
50123;BME280;36021;48.670;6.184;2023-05-20T02:31:06;99092.34;;;15.86;100.00
50123;BME280;36021;48.670;6.184;2023-05-20T02:33:32;99087.25;;;15.88;100.00
50123;BME280;36021;48.670;6.184;2023-05-20T02:35:57;99094.00;;;15.87;100.00
50123;BME280;36021;48.670;6.184;2023-05-20T02:38:24;99094.78;;;15.87;100.00
50123;BME280;36021;48.670;6.184;2023-05-20T02:40:50;99086.78;;;15.86;100.00
50123;BME280;36021;48.670;6.184;2023-05-20T02:43:16;99084.16;;;15.89;100.00
50123;BME280;36021;48.670;6.184;2023-05-20T02:45:42;99084.81;;;15.86;100.00
50123;BME280;36021;48.670;6.184;2023-05-20T02:48:09;99079.59;;;15.85;100.00
50123;BME280;36021;48.670;6.184;2023-05-20T02:50:39;99076.31;;;15.83;100.00
50123;BME280;36021;48.670;6.184;2023-05-20T02:53:05;99080.56;;;15.72;100.00
50123;BME280;36021;48.670;6.184;2023-05-20T02:55:39;99081.69;;;15.71;100.00
50123;BME280;36021;48.670;6.184;2023-05-20T02:58:05;99076.97;;;15.80;100.00
50123;BME280;36021;48.670;6.184;2023-05-20T03:00:32;99075.19;;;15.75;100.00
50123;BME280;36021;48.670;6.184;2023-05-20T03:03:08;99071.75;;;15.70;100.00
50123;BME280;36021;48.670;6.184;2023-05-20T03:05:35;99074.03;;;15.68;100.00
50123;BME280;36021;48.670;6.184;2023-05-20T03:08:06;99079.75;;;15.62;100.00
50123;BME280;36021;48.670;6.184;2023-05-20T03:10:38;99079.28;;;15.60;100.00
50123;BME280;36021;48.670;6.184;2023-05-20T03:13:05;99082.69;;;15.66;100.00
50123;BME280;36021;48.670;6.184;2023-05-20T03:15:42;99078.59;;;15.72;100.00
50123;BME280;36021;48.670;6.184;2023-05-20T03:18:11;99088.09;;;15.80;100.00
50123;BME280;36021;48.670;6.184;2023-05-20T03:20:38;99087.44;;;15.83;100.00
50123;BME280;36021;48.670;6.184;2023-05-20T03:23:06;99083.19;;;15.77;100.00
50123;BME280;36021;48.670;6.184;2023-05-20T03:25:35;99087.28;;;15.79;100.00
50123;BME280;36021;48.670;6.184;2023-05-20T03:28:04;99088.75;;;15.77;100.00
50123;BME280;36021;48.670;6.184;2023-05-20T03:30:32;99077.81;;;15.80;100.00
50123;BME280;36021;48.670;6.184;2023-05-20T03:32:58;99083.69;;;15.79;100.00
50123;BME280;36021;48.670;6.184;2023-05-20T03:35:24;99090.38;;;15.78;100.00
50123;BME280;36021;48.670;6.184;2023-05-20T03:37:51;99084.00;;;15.77;100.00
50123;BME280;36021;48.670;6.184;2023-05-20T03:40:19;99086.13;;;15.72;100.00
50123;BME280;36021;48.670;6.184;2023-05-20T03:42:47;99087.78;;;15.73;100.00
50123;BME280;36021;48.670;6.184;2023-05-20T03:45:14;99086.78;;;15.69;100.00
50123;BME280;36021;48.670;6.184;2023-05-20T03:47:48;99085.81;;;15.73;100.00
50123;BME280;36021;48.670;6.184;2023-05-20T03:50:16;99089.72;;;15.63;100.00
50123;BME280;36021;48.670;6.184;2023-05-20T03:52:42;99079.56;;;15.68;100.00
50123;BME280;36021;48.670;6.184;2023-05-20T03:55:08;99082.53;;;15.54;100.00
50123;BME280;36021;48.670;6.184;2023-05-20T03:57:34;99082.69;;;15.49;100.00
50123;BME280;36021;48.670;6.184;2023-05-20T04:00:03;99081.50;;;15.41;100.00
50123;BME280;36021;48.670;6.184;2023-05-20T04:02:41;99073.66;;;15.43;100.00
50123;BME280;36021;48.670;6.184;2023-05-20T04:05:08;99084.94;;;15.47;100.00
50123;BME280;36021;48.670;6.184;2023-05-20T04:07:35;99078.41;;;15.43;100.00
50123;BME280;36021;48.670;6.184;2023-05-20T04:10:02;99079.88;;;15.40;100.00
50123;BME280;36021;48.670;6.184;2023-05-20T04:12:29;99073.34;;;15.36;100.00
50123;BME280;36021;48.670;6.184;2023-05-20T04:14:59;99072.84;;;15.34;100.00
50123;BME280;36021;48.670;6.184;2023-05-20T04:17:28;99071.03;;;15.38;100.00
50123;BME280;36021;48.670;6.184;2023-05-20T04:19:58;99073.50;;;15.31;100.00
50123;BME280;36021;48.670;6.184;2023-05-20T04:22:26;99078.88;;;15.36;100.00
50123;BME280;36021;48.670;6.184;2023-05-20T04:24:52;99076.09;;;15.36;100.00
50123;BME280;36021;48.670;6.184;2023-05-20T04:27:17;99071.84;;;15.39;100.00
50123;BME280;36021;48.670;6.184;2023-05-20T04:29:45;99080.03;;;15.44;100.00
50123;BME280;36021;48.670;6.184;2023-05-20T04:32:13;99081.56;;;15.50;100.00
50123;BME280;36021;48.670;6.184;2023-05-20T04:34:39;99082.53;;;15.54;100.00
50123;BME280;36021;48.670;6.184;2023-05-20T04:37:05;99083.34;;;15.54;100.00
50123;BME280;36021;48.670;6.184;2023-05-20T04:39:35;99075.66;;;15.51;100.00
50123;BME280;36021;48.670;6.184;2023-05-20T04:42:02;99075.66;;;15.51;100.00
50123;BME280;36021;48.670;6.184;2023-05-20T04:44:29;99081.22;;;15.51;100.00
50123;BME280;36021;48.670;6.184;2023-05-20T04:46:55;99080.06;;;15.52;100.00
50123;BME280;36021;48.670;6.184;2023-05-20T04:49:26;99074.03;;;15.50;100.00
50123;BME280;36021;48.670;6.184;2023-05-20T04:51:51;99079.09;;;15.48;100.00
50123;BME280;36021;48.670;6.184;2023-05-20T04:54:19;99075.00;;;15.54;100.00
50123;BME280;36021;48.670;6.184;2023-05-20T04:56:46;99076.47;;;15.52;100.00
50123;BME280;36021;48.670;6.184;2023-05-20T04:59:13;99076.47;;;15.52;100.00
50123;BME280;36021;48.670;6.184;2023-05-20T05:01:39;99076.00;;;15.58;100.00
50123;BME280;36021;48.670;6.184;2023-05-20T05:04:05;99073.38;;;15.53;100.00
50123;BME280;36021;48.670;6.184;2023-05-20T05:06:30;99078.75;;;15.58;100.00
50123;BME280;36021;48.670;6.184;2023-05-20T05:08:58;99068.66;;;15.62;100.00
50123;BME280;36021;48.670;6.184;2023-05-20T05:11:25;99069.13;;;15.64;100.00
50123;BME280;36021;48.670;6.184;2023-05-20T05:13:51;99067.81;;;15.71;100.00
50123;BME280;36021;48.670;6.184;2023-05-20T05:16:18;99066.66;;;15.72;100.00
50123;BME280;36021;48.670;6.184;2023-05-20T05:18:44;99067.66;;;15.76;100.00
50123;BME280;36021;48.670;6.184;2023-05-20T05:21:10;99077.63;;;15.59;100.00
50123;BME280;36021;48.670;6.184;2023-05-20T05:23:36;99076.16;;;15.71;100.00
50123;BME280;36021;48.670;6.184;2023-05-20T05:26:02;99073.22;;;15.67;100.00
50123;BME280;36021;48.670;6.184;2023-05-20T05:28:30;99068.78;;;15.75;100.00
50123;BME280;36021;48.670;6.184;2023-05-20T05:30:56;99068.47;;;15.76;100.00
50123;BME280;36021;48.670;6.184;2023-05-20T05:33:22;99067.19;;;15.74;100.00
50123;BME280;36021;48.670;6.184;2023-05-20T05:35:47;99067.66;;;15.76;100.00
50123;BME280;36021;48.670;6.184;2023-05-20T05:38:14;99066.97;;;15.87;100.00
50123;BME280;36021;48.670;6.184;2023-05-20T05:40:41;99069.59;;;15.92;100.00
50123;BME280;36021;48.670;6.184;2023-05-20T05:43:07;99066.66;;;15.97;100.00
50123;BME280;36021;48.670;6.184;2023-05-20T05:45:33;99068.25;;;16.07;100.00
50123;BME280;36021;48.670;6.184;2023-05-20T05:47:59;99064.66;;;16.15;100.00
50123;BME280;36021;48.670;6.184;2023-05-20T05:50:25;99066.31;;;16.16;100.00
50123;BME280;36021;48.670;6.184;2023-05-20T05:52:51;99070.66;;;16.34;100.00
50123;BME280;36021;48.670;6.184;2023-05-20T05:55:17;99067.84;;;16.43;100.00
50123;BME280;36021;48.670;6.184;2023-05-20T05:57:44;99058.31;;;16.52;100.00
50123;BME280;36021;48.670;6.184;2023-05-20T06:00:14;99054.59;;;16.48;100.00
50123;BME280;36021;48.670;6.184;2023-05-20T06:02:46;99056.53;;;16.56;100.00
50123;BME280;36021;48.670;6.184;2023-05-20T06:05:22;99063.59;;;16.45;100.00
50123;BME280;36021;48.670;6.184;2023-05-20T06:07:51;99052.75;;;16.52;100.00
50123;BME280;36021;48.670;6.184;2023-05-20T06:10:18;99046.88;;;16.54;100.00
50123;BME280;36021;48.670;6.184;2023-05-20T06:12:44;99044.41;;;16.52;100.00
50123;BME280;36021;48.670;6.184;2023-05-20T06:15:11;99045.06;;;16.49;100.00
50123;BME280;36021;48.670;6.184;2023-05-20T06:17:37;99041.16;;;16.50;100.00
50123;BME280;36021;48.670;6.184;2023-05-20T06:20:03;99037.41;;;16.46;100.00
50123;BME280;36021;48.670;6.184;2023-05-20T06:22:29;99035.94;;;16.40;100.00
50123;BME280;36021;48.670;6.184;2023-05-20T06:24:55;99034.31;;;16.39;100.00
50123;BME280;36021;48.670;6.184;2023-05-20T06:27:21;99034.31;;;16.39;100.00
50123;BME280;36021;48.670;6.184;2023-05-20T06:33:43;99032.53;;;16.35;100.00
50123;BME280;36021;48.670;6.184;2023-05-20T06:36:11;99033.38;;;16.35;100.00
50123;BME280;36021;48.670;6.184;2023-05-20T06:38:37;99032.03;;;16.41;100.00
50123;BME280;36021;48.670;6.184;2023-05-20T06:41:04;99028.63;;;16.36;100.00
50123;BME280;36021;48.670;6.184;2023-05-20T06:43:32;99021.53;;;16.47;100.00
50123;BME280;36021;48.670;6.184;2023-05-20T06:46:03;99026.63;;;16.45;100.00
50123;BME280;36021;48.670;6.184;2023-05-20T06:48:44;99013.69;;;16.49;100.00
50123;BME280;36021;48.670;6.184;2023-05-20T06:51:11;99014.63;;;16.61;100.00
50123;BME280;36021;48.670;6.184;2023-05-20T06:53:37;99021.34;;;16.60;100.00
50123;BME280;36021;48.670;6.184;2023-05-20T06:56:03;99024.41;;;16.67;100.00
50123;BME280;36021;48.670;6.184;2023-05-20T06:58:31;99019.97;;;16.75;100.00
50123;BME280;36021;48.670;6.184;2023-05-20T07:00:57;99023.28;;;16.69;100.00
50123;BME280;36021;48.670;6.184;2023-05-20T07:03:23;99024.38;;;16.76;100.00
50123;BME280;36021;48.670;6.184;2023-05-20T07:05:51;99024.19;;;16.81;100.00
50123;BME280;36021;48.670;6.184;2023-05-20T07:08:18;99027.59;;;16.87;100.00
50123;BME280;36021;48.670;6.184;2023-05-20T07:10:44;99019.81;;;17.01;100.00
50123;BME280;36021;48.670;6.184;2023-05-20T07:13:12;99021.72;;;17.09;100.00
50123;BME280;36021;48.670;6.184;2023-05-20T07:15:39;99021.53;;;17.14;100.00
50123;BME280;36021;48.670;6.184;2023-05-20T07:18:06;99023.78;;;17.21;100.00
50123;BME280;36021;48.670;6.184;2023-05-20T07:20:31;99018.13;;;17.29;100.00
50123;BME280;36021;48.670;6.184;2023-05-20T07:23:03;99020.84;;;17.38;100.00
50123;BME280;36021;48.670;6.184;2023-05-20T07:25:35;99018.34;;;17.45;100.00
50123;BME280;36021;48.670;6.184;2023-05-20T07:28:01;99021.34;;;17.60;100.00
50123;BME280;36021;48.670;6.184;2023-05-20T07:30:27;99013.63;;;17.66;100.00
50123;BME280;36021;48.670;6.184;2023-05-20T07:33:08;99012.63;;;17.83;100.00
50123;BME280;36021;48.670;6.184;2023-05-20T07:35:34;99015.00;;;17.93;100.00
50123;BME280;36021;48.670;6.184;2023-05-20T07:38:00;99021.50;;;17.97;100.00
50123;BME280;36021;48.670;6.184;2023-05-20T07:40:25;99010.16;;;18.14;100.00
50123;BME280;36021;48.670;6.184;2023-05-20T07:42:51;99012.44;;;18.00;100.00
50123;BME280;36021;48.670;6.184;2023-05-20T07:45:20;99003.34;;;17.91;100.00
50123;BME280;36021;48.670;6.184;2023-05-20T07:47:47;99002.16;;;18.12;100.00
50123;BME280;36021;48.670;6.184;2023-05-20T07:50:13;99004.94;;;18.12;100.00
50123;BME280;36021;48.670;6.184;2023-05-20T07:52:40;99004.16;;;18.24;100.00
50123;BME280;36021;48.670;6.184;2023-05-20T07:55:06;99000.22;;;18.49;100.00
50123;BME280;36021;48.670;6.184;2023-05-20T07:57:33;98997.94;;;18.51;100.00
50123;BME280;36021;48.670;6.184;2023-05-20T07:59:59;98993.75;;;18.69;100.00
50123;BME280;36021;48.670;6.184;2023-05-20T08:02:25;98992.72;;;18.74;100.00
50123;BME280;36021;48.670;6.184;2023-05-20T08:04:51;98992.94;;;18.93;100.00
50123;BME280;36021;48.670;6.184;2023-05-20T08:07:18;98985.78;;;19.20;100.00
50123;BME280;36021;48.670;6.184;2023-05-20T08:09:51;98988.44;;;19.29;100.00
50123;BME280;36021;48.670;6.184;2023-05-20T08:12:17;98986.88;;;19.55;100.00
50123;BME280;36021;48.670;6.184;2023-05-20T08:14:44;98968.69;;;19.61;100.00
50123;BME280;36021;48.670;6.184;2023-05-20T08:17:10;98975.50;;;19.76;100.00
50123;BME280;36021;48.670;6.184;2023-05-20T08:19:36;98979.78;;;19.86;100.00
50123;BME280;36021;48.670;6.184;2023-05-20T08:22:02;98979.69;;;19.98;100.00
50123;BME280;36021;48.670;6.184;2023-05-20T08:24:30;98980.56;;;19.86;100.00
50123;BME280;36021;48.670;6.184;2023-05-20T08:26:56;98982.28;;;19.91;100.00
50123;BME280;36021;48.670;6.184;2023-05-20T08:29:25;98981.38;;;19.87;100.00
50123;BME280;36021;48.670;6.184;2023-05-20T08:31:51;98981.19;;;19.80;100.00
50123;BME280;36021;48.670;6.184;2023-05-20T08:34:17;98979.94;;;19.93;100.00
50123;BME280;36021;48.670;6.184;2023-05-20T08:36:44;98976.28;;;20.04;100.00
50123;BME280;36021;48.670;6.184;2023-05-20T08:39:10;98986.31;;;20.21;100.00
50123;BME280;36021;48.670;6.184;2023-05-20T08:41:38;98978.50;;;20.26;100.00
50123;BME280;36021;48.670;6.184;2023-05-20T08:44:06;98978.34;;;20.35;100.00
50123;BME280;36021;48.670;6.184;2023-05-20T08:46:35;98973.19;;;20.37;100.00
50123;BME280;36021;48.670;6.184;2023-05-20T08:49:01;98973.38;;;20.44;100.00
50123;BME280;36021;48.670;6.184;2023-05-20T08:51:28;98978.03;;;20.24;100.00
50123;BME280;36021;48.670;6.184;2023-05-20T08:53:58;98971.69;;;20.12;100.00
50123;BME280;36021;48.670;6.184;2023-05-20T08:56:24;98970.47;;;20.41;100.00
50123;BME280;36021;48.670;6.184;2023-05-20T08:58:52;98977.00;;;20.45;100.00
50123;BME280;36021;48.670;6.184;2023-05-20T09:01:23;98968.69;;;20.48;100.00
50123;BME280;36021;48.670;6.184;2023-05-20T09:03:49;98961.09;;;20.64;100.00
50123;BME280;36021;48.670;6.184;2023-05-20T09:06:16;98956.03;;;20.54;100.00
50123;BME280;36021;48.670;6.184;2023-05-20T09:08:47;98955.97;;;20.86;100.00
50123;BME280;36021;48.670;6.184;2023-05-20T09:11:13;98947.34;;;20.94;100.00
50123;BME280;36021;48.670;6.184;2023-05-20T09:13:39;98951.97;;;21.02;100.00
50123;BME280;36021;48.670;6.184;2023-05-20T09:16:05;98953.41;;;21.12;100.00
50123;BME280;36021;48.670;6.184;2023-05-20T09:18:31;98960.94;;;21.27;100.00
50123;BME280;36021;48.670;6.184;2023-05-20T09:20:57;98955.94;;;21.17;100.00
50123;BME280;36021;48.670;6.184;2023-05-20T09:23:23;98951.50;;;21.16;100.00
50123;BME280;36021;48.670;6.184;2023-05-20T09:25:54;98951.50;;;21.16;100.00
50123;BME280;36021;48.670;6.184;2023-05-20T09:28:23;98952.25;;;21.32;100.00
50123;BME280;36021;48.670;6.184;2023-05-20T09:30:50;98969.41;;;21.46;100.00
50123;BME280;36021;48.670;6.184;2023-05-20T09:33:16;98967.78;;;21.45;100.00
50123;BME280;36021;48.670;6.184;2023-05-20T09:35:42;98967.34;;;21.62;100.00
50123;BME280;36021;48.670;6.184;2023-05-20T09:38:09;98969.69;;;21.60;100.00
50123;BME280;36021;48.670;6.184;2023-05-20T09:40:36;98967.44;;;21.69;100.00
50123;BME280;36021;48.670;6.184;2023-05-20T09:43:05;98964.78;;;21.76;100.00
50123;BME280;36021;48.670;6.184;2023-05-20T09:45:36;98971.38;;;22.03;100.00
50123;BME280;36021;48.670;6.184;2023-05-20T09:48:03;98971.75;;;22.02;100.00
50123;BME280;36021;48.670;6.184;2023-05-20T09:50:30;98966.94;;;22.02;100.00
50123;BME280;36021;48.670;6.184;2023-05-20T09:53:01;98973.50;;;22.10;100.00
50123;BME280;36021;48.670;6.184;2023-05-20T09:55:26;98968.28;;;22.08;100.00
50123;BME280;36021;48.670;6.184;2023-05-20T09:57:52;98957.13;;;22.12;100.00
50123;BME280;36021;48.670;6.184;2023-05-20T10:00:20;98961.38;;;22.25;100.00
50123;BME280;36021;48.670;6.184;2023-05-20T10:02:50;98955.34;;;22.04;100.00
50123;BME280;36021;48.670;6.184;2023-05-20T10:05:17;98945.75;;;22.05;100.00
50123;BME280;36021;48.670;6.184;2023-05-20T10:11:18;98945.81;;;22.31;100.00
50123;BME280;36021;48.670;6.184;2023-05-20T10:14:12;98944.25;;;22.33;100.00
50123;BME280;36021;48.670;6.184;2023-05-20T10:16:56;98926.38;;;22.45;100.00
50123;BME280;36021;48.670;6.184;2023-05-20T10:19:31;98931.19;;;22.45;100.00
50123;BME280;36021;48.670;6.184;2023-05-20T10:22:01;98922.88;;;22.52;100.00
50123;BME280;36021;48.670;6.184;2023-05-20T10:24:37;98924.88;;;22.51;100.00
50123;BME280;36021;48.670;6.184;2023-05-20T10:27:10;98920.69;;;22.38;100.00
50123;BME280;36021;48.670;6.184;2023-05-20T10:32:07;98906.94;;;22.33;100.00
50123;BME280;36021;48.670;6.184;2023-05-20T10:34:44;98906.63;;;22.38;100.00
50123;BME280;36021;48.670;6.184;2023-05-20T10:37:22;98903.91;;;22.45;100.00
50123;BME280;36021;48.670;6.184;2023-05-20T10:39:48;98906.94;;;22.33;100.00
50123;BME280;36021;48.670;6.184;2023-05-20T10:42:14;98901.50;;;22.44;100.00
50123;BME280;36021;48.670;6.184;2023-05-20T10:44:44;98892.84;;;22.56;100.00
50123;BME280;36021;48.670;6.184;2023-05-20T10:47:12;98899.28;;;22.56;100.00
50123;BME280;36021;48.670;6.184;2023-05-20T10:49:44;98899.00;;;22.65;100.00
50123;BME280;36021;48.670;6.184;2023-05-20T10:52:11;98896.81;;;22.77;100.00
50123;BME280;36021;48.670;6.184;2023-05-20T10:54:57;98891.53;;;22.72;100.00
50123;BME280;36021;48.670;6.184;2023-05-20T10:57:26;98892.41;;;22.76;100.00
50123;BME280;36021;48.670;6.184;2023-05-20T10:59:55;98879.94;;;22.51;100.00
50123;BME280;36021;48.670;6.184;2023-05-20T11:02:21;98883.97;;;22.76;100.00
50123;BME280;36021;48.670;6.184;2023-05-20T11:04:55;98893.59;;;22.75;100.00
50123;BME280;36021;48.670;6.184;2023-05-20T11:07:27;98876.00;;;23.08;100.00
50123;BME280;36021;48.670;6.184;2023-05-20T11:09:56;98881.56;;;23.05;100.00
50123;BME280;36021;48.670;6.184;2023-05-20T11:12:23;98885.56;;;22.74;100.00
50123;BME280;36021;48.670;6.184;2023-05-20T11:14:49;98885.06;;;22.68;100.00
50123;BME280;36021;48.670;6.184;2023-05-20T11:17:15;98890.16;;;22.37;100.00
50123;BME280;36021;48.670;6.184;2023-05-20T11:19:41;98876.94;;;22.63;100.00
50123;BME280;36021;48.670;6.184;2023-05-20T11:22:07;98872.47;;;23.15;100.00
50123;BME280;36021;48.670;6.184;2023-05-20T11:24:36;98868.13;;;23.51;100.00
50123;BME280;36021;48.670;6.184;2023-05-20T11:27:05;98863.31;;;23.88;100.00
50123;BME280;36021;48.670;6.184;2023-05-20T11:29:32;98868.31;;;24.09;100.00
50123;BME280;36021;48.670;6.184;2023-05-20T11:31:58;98867.03;;;24.03;100.00
50123;BME280;36021;48.670;6.184;2023-05-20T11:34:24;98867.53;;;23.71;100.00
50123;BME280;36021;48.670;6.184;2023-05-20T11:36:57;98859.09;;;23.71;100.00
50123;BME280;36021;48.670;6.184;2023-05-20T11:39:23;98861.91;;;23.71;100.00
50123;BME280;36021;48.670;6.184;2023-05-20T11:41:50;98865.78;;;23.97;100.00
50123;BME280;36021;48.670;6.184;2023-05-20T11:44:18;98848.59;;;24.09;100.00
50123;BME280;36021;48.670;6.184;2023-05-20T11:46:46;98854.28;;;24.12;100.00
50123;BME280;36021;48.670;6.184;2023-05-20T11:49:13;98862.63;;;24.02;100.00
50123;BME280;36021;48.670;6.184;2023-05-20T11:51:39;98858.53;;;23.96;100.00
50123;BME280;36021;48.670;6.184;2023-05-20T11:54:06;98854.94;;;23.99;100.00
50123;BME280;36021;48.670;6.184;2023-05-20T11:56:34;98857.63;;;23.84;100.00
50123;BME280;36021;48.670;6.184;2023-05-20T11:59:04;98851.97;;;23.81;100.00
50123;BME280;36021;48.670;6.184;2023-05-20T12:01:31;98858.59;;;24.03;100.00
50123;BME280;36021;48.670;6.184;2023-05-20T12:04:10;98852.34;;;24.20;100.00
50123;BME280;36021;48.670;6.184;2023-05-20T12:06:41;98849.25;;;24.35;100.00
50123;BME280;36021;48.670;6.184;2023-05-20T12:09:10;98838.47;;;24.48;100.00
50123;BME280;36021;48.670;6.184;2023-05-20T12:11:39;98837.16;;;24.35;100.00
50123;BME280;36021;48.670;6.184;2023-05-20T12:14:06;98832.47;;;24.50;100.00
50123;BME280;36021;48.670;6.184;2023-05-20T12:16:33;98832.50;;;24.57;100.00
50123;BME280;36021;48.670;6.184;2023-05-20T12:18:59;98835.66;;;24.48;100.00
50123;BME280;36021;48.670;6.184;2023-05-20T12:21:25;98829.97;;;24.38;100.00
50123;BME280;36021;48.670;6.184;2023-05-20T12:23:52;98832.31;;;24.32;100.00
50123;BME280;36021;48.670;6.184;2023-05-20T12:26:25;98836.38;;;24.38;100.00
50123;BME280;36021;48.670;6.184;2023-05-20T12:28:53;98834.75;;;24.33;100.00
50123;BME280;36021;48.670;6.184;2023-05-20T12:31:19;98835.97;;;23.89;100.00
50123;BME280;36021;48.670;6.184;2023-05-20T12:33:46;98827.28;;;24.08;100.00
50123;BME280;36021;48.670;6.184;2023-05-20T12:36:12;98825.03;;;24.24;100.00
50123;BME280;36021;48.670;6.184;2023-05-20T12:38:37;98825.94;;;24.38;100.00
50123;BME280;36021;48.670;6.184;2023-05-20T12:41:03;98816.38;;;24.50;100.00
50123;BME280;36021;48.670;6.184;2023-05-20T12:43:31;98814.72;;;24.46;100.00
50123;BME280;36021;48.670;6.184;2023-05-20T12:45:56;98810.50;;;24.22;100.00
50123;BME280;36021;48.670;6.184;2023-05-20T12:48:24;98819.00;;;24.29;100.00
50123;BME280;36021;48.670;6.184;2023-05-20T12:50:50;98809.75;;;24.28;100.00
50123;BME280;36021;48.670;6.184;2023-05-20T12:53:15;98808.13;;;24.24;100.00
50123;BME280;36021;48.670;6.184;2023-05-20T12:55:41;98808.03;;;24.13;100.00
50123;BME280;36021;48.670;6.184;2023-05-20T12:58:07;98808.13;;;24.24;100.00
50123;BME280;36021;48.670;6.184;2023-05-20T13:00:34;98803.34;;;24.31;100.00
50123;BME280;36021;48.670;6.184;2023-05-20T13:03:03;98812.41;;;24.11;100.00
50123;BME280;36021;48.670;6.184;2023-05-20T13:05:29;98812.16;;;24.26;100.00